createdAt,value
2023-05-25T00:01:02.444Z,18.62
2023-05-25T00:03:49.658Z,18.68
2023-05-25T00:06:37.520Z,18.65
2023-05-25T00:09:25.099Z,18.62
2023-05-25T00:12:11.245Z,18.59
2023-05-25T00:14:57.090Z,18.54
2023-05-25T00:17:42.994Z,18.51
2023-05-25T00:20:28.809Z,18.47
2023-05-25T00:23:14.697Z,18.50
2023-05-25T00:26:02.601Z,18.42
2023-05-25T00:28:48.632Z,18.42
2023-05-25T00:31:36.844Z,18.43
2023-05-25T00:34:23.093Z,18.37
2023-05-25T00:37:09.066Z,18.42
2023-05-25T00:39:55.397Z,18.41
2023-05-25T00:42:41.715Z,18.35
2023-05-25T00:45:27.737Z,18.37
2023-05-25T00:48:14.077Z,18.37
2023-05-25T00:51:00.277Z,18.34
2023-05-25T00:53:46.050Z,18.30
2023-05-25T00:56:35.205Z,18.30
2023-05-25T00:59:45.170Z,18.27
2023-05-25T01:02:31.439Z,18.24
2023-05-25T01:05:17.842Z,18.22
2023-05-25T01:08:05.614Z,18.22
2023-05-25T01:10:52.973Z,18.10
2023-05-25T01:13:39.358Z,18.19
2023-05-25T01:16:28.889Z,18.14
2023-05-25T01:19:15.872Z,18.14
2023-05-25T01:22:07.575Z,18.13
2023-05-25T01:25:02.407Z,18.10
2023-05-25T01:27:52.380Z,18.10
2023-05-25T01:30:42.283Z,18.08
2023-05-25T01:33:29.082Z,18.07
2023-05-25T01:36:15.216Z,18.00
2023-05-25T01:39:01.482Z,17.99
2023-05-25T01:41:47.586Z,18.01
2023-05-25T01:44:33.392Z,17.94
2023-05-25T01:47:29.448Z,17.94
2023-05-25T01:50:30.881Z,17.92
2023-05-25T01:53:19.915Z,17.88
2023-05-25T01:56:08.802Z,17.85
2023-05-25T01:58:56.789Z,17.83
2023-05-25T02:01:44.316Z,17.77
2023-05-25T02:04:31.599Z,17.75
2023-05-25T02:07:17.688Z,17.78
2023-05-25T02:10:04.804Z,17.76
2023-05-25T02:12:51.003Z,17.68
2023-05-25T02:15:37.516Z,17.77
2023-05-25T02:18:23.823Z,17.76
2023-05-25T02:21:13.149Z,17.72
2023-05-25T02:23:59.329Z,17.73
2023-05-25T02:26:45.134Z,17.73
2023-05-25T02:29:33.641Z,17.68
2023-05-25T02:32:21.300Z,17.78
2023-05-25T02:35:08.576Z,17.80
2023-05-25T02:37:54.864Z,17.77
2023-05-25T02:40:40.891Z,17.81
2023-05-25T02:43:26.787Z,17.80
2023-05-25T02:46:12.696Z,17.78
2023-05-25T02:48:59.528Z,17.74
2023-05-25T02:51:45.428Z,17.71
2023-05-25T02:54:31.450Z,17.66
2023-05-25T02:57:17.399Z,17.61
2023-05-25T03:00:05.109Z,17.58
2023-05-25T03:02:51.533Z,17.54
2023-05-25T03:05:38.815Z,17.53
2023-05-25T03:08:25.269Z,17.51
2023-05-25T03:11:11.352Z,17.49
2023-05-25T03:13:58.544Z,17.49
2023-05-25T03:16:46.200Z,17.54
2023-05-25T03:19:32.519Z,17.56
2023-05-25T03:22:18.896Z,17.61
2023-05-25T03:25:06.186Z,17.58
2023-05-25T03:27:54.139Z,17.59
2023-05-25T03:30:40.259Z,17.59
2023-05-25T03:33:27.592Z,17.59
2023-05-25T03:36:13.839Z,17.61
2023-05-25T03:39:01.199Z,17.60
2023-05-25T03:41:48.696Z,17.61
2023-05-25T03:44:35.694Z,17.55
2023-05-25T03:47:21.728Z,17.56
2023-05-25T03:50:08.434Z,17.55
2023-05-25T03:52:54.702Z,17.48
2023-05-25T03:55:43.230Z,17.46
2023-05-25T03:58:29.436Z,17.48
2023-05-25T04:01:16.810Z,17.48
2023-05-25T04:04:03.044Z,17.50
2023-05-25T04:06:49.219Z,17.50
2023-05-25T04:09:35.379Z,17.46
2023-05-25T04:12:22.343Z,17.45
2023-05-25T04:15:09.733Z,17.38
2023-05-25T04:18:07.898Z,17.45
2023-05-25T04:20:56.728Z,17.51
2023-05-25T04:23:43.263Z,17.54
2023-05-25T04:26:29.480Z,17.51
2023-05-25T04:29:16.261Z,17.57
2023-05-25T04:32:17.840Z,17.57
2023-05-25T04:35:26.995Z,17.66
2023-05-25T04:38:17.746Z,17.70
2023-05-25T04:41:04.193Z,17.75
2023-05-25T04:44:05.815Z,17.81
2023-05-25T04:47:01.453Z,17.85
2023-05-25T04:49:53.403Z,17.88
2023-05-25T04:52:39.104Z,17.90
2023-05-25T04:55:24.979Z,17.86
2023-05-25T05:00:56.887Z,17.89
2023-05-25T05:03:42.757Z,17.91
2023-05-25T05:06:28.972Z,17.93
2023-05-25T05:09:15.216Z,17.92
2023-05-25T05:12:03.362Z,18.00
2023-05-25T05:14:56.101Z,18.00
2023-05-25T05:17:42.451Z,18.03
2023-05-25T05:20:30.648Z,18.07
2023-05-25T05:23:16.649Z,18.07
2023-05-25T05:26:05.030Z,18.04
2023-05-25T05:28:52.747Z,18.11
2023-05-25T05:31:39.771Z,18.12
2023-05-25T05:34:27.368Z,18.18
2023-05-25T05:37:14.063Z,18.18
2023-05-25T05:40:27.021Z,18.22
2023-05-25T05:43:13.643Z,18.27
2023-05-25T05:45:59.754Z,18.31
2023-05-25T05:48:46.041Z,18.39
2023-05-25T05:51:33.059Z,18.44
2023-05-25T05:54:20.640Z,18.48
2023-05-25T05:57:06.837Z,18.56
2023-05-25T05:59:52.625Z,18.61
2023-05-25T06:02:41.361Z,18.71
2023-05-25T06:05:29.781Z,18.73
2023-05-25T06:08:17.152Z,18.81
2023-05-25T06:11:03.228Z,18.91
2023-05-25T06:13:49.525Z,18.95
2023-05-25T06:16:36.797Z,19.00
2023-05-25T06:19:23.087Z,19.11
2023-05-25T06:22:09.116Z,19.13
2023-05-25T06:24:55.250Z,19.20
2023-05-25T06:27:41.118Z,19.27
2023-05-25T06:30:27.608Z,19.35
2023-05-25T06:33:14.568Z,19.41
2023-05-25T06:36:02.166Z,19.47
2023-05-25T06:38:48.334Z,19.56
2023-05-25T06:41:34.854Z,19.63
2023-05-25T06:44:21.781Z,19.63
2023-05-25T06:47:07.713Z,19.74
2023-05-25T06:49:53.875Z,19.79
2023-05-25T06:52:39.764Z,19.85
2023-05-25T06:55:25.980Z,19.86
2023-05-25T06:58:11.973Z,19.95
2023-05-25T07:00:58.105Z,19.99
2023-05-25T07:03:44.280Z,20.00
2023-05-25T07:06:30.025Z,20.02
2023-05-25T07:09:15.975Z,20.11
2023-05-25T07:12:02.678Z,20.10
2023-05-25T07:14:48.967Z,20.17
2023-05-25T07:17:38.828Z,20.25
2023-05-25T07:20:25.277Z,20.35
2023-05-25T07:23:11.857Z,20.46
2023-05-25T07:25:57.903Z,20.48
2023-05-25T07:28:45.212Z,20.56
2023-05-25T07:31:39.769Z,20.63
2023-05-25T07:34:28.009Z,20.68
2023-05-25T07:37:13.979Z,20.70
2023-05-25T07:40:02.181Z,20.74
2023-05-25T07:42:48.363Z,20.75
2023-05-25T07:45:34.156Z,20.78
2023-05-25T07:48:20.059Z,20.86
2023-05-25T07:51:06.027Z,20.93
2023-05-25T07:53:54.169Z,20.98
2023-05-25T07:56:40.142Z,21.08
2023-05-25T07:59:26.433Z,21.15
2023-05-25T08:02:12.477Z,21.18
2023-05-25T08:04:59.802Z,21.27
2023-05-25T08:07:46.576Z,21.32
2023-05-25T08:10:32.556Z,21.36
2023-05-25T08:13:18.573Z,21.38
2023-05-25T08:16:04.552Z,21.39
2023-05-25T08:18:51.004Z,21.46
2023-05-25T08:21:37.786Z,21.41
2023-05-25T08:24:23.830Z,21.50
2023-05-25T08:27:09.692Z,21.51
2023-05-25T08:29:56.146Z,21.48
2023-05-25T08:32:42.095Z,21.49
2023-05-25T08:35:29.407Z,21.47
2023-05-25T08:38:15.680Z,21.49
2023-05-25T08:41:06.263Z,21.46
2023-05-25T08:43:52.541Z,21.43
2023-05-25T08:46:42.052Z,21.36
2023-05-25T08:49:28.235Z,21.29
2023-05-25T08:52:15.046Z,21.21
2023-05-25T08:55:04.884Z,21.12
2023-05-25T08:58:03.352Z,21.08
2023-05-25T09:00:55.832Z,21.05
2023-05-25T09:03:41.892Z,20.97
2023-05-25T09:06:28.451Z,21.02
2023-05-25T09:09:14.715Z,21.01
2023-05-25T09:12:00.723Z,21.03
2023-05-25T09:14:48.221Z,20.99
2023-05-25T09:17:38.061Z,21.02
2023-05-25T09:20:25.014Z,21.00
2023-05-25T09:23:11.021Z,21.02
2023-05-25T09:25:58.189Z,21.06
2023-05-25T09:28:48.518Z,21.11
2023-05-25T09:31:34.710Z,21.14
2023-05-25T09:34:20.862Z,21.17
2023-05-25T09:37:14.433Z,21.18
2023-05-25T09:40:00.506Z,21.20
2023-05-25T09:42:46.198Z,21.21
2023-05-25T09:45:32.276Z,21.22
2023-05-25T09:48:18.319Z,21.21
2023-05-25T09:51:04.677Z,21.22
2023-05-25T09:53:51.624Z,21.19
2023-05-25T09:56:38.754Z,21.18
2023-05-25T09:59:24.579Z,21.20
2023-05-25T10:02:11.146Z,21.17
2023-05-25T10:04:57.737Z,21.24
2023-05-25T10:07:47.953Z,21.26
2023-05-25T10:10:33.811Z,21.26
2023-05-25T10:13:23.362Z,21.23
2023-05-25T10:16:13.414Z,21.27
2023-05-25T10:19:02.322Z,21.31
2023-05-25T10:21:56.849Z,21.34
2023-05-25T10:24:46.051Z,21.37
2023-05-25T10:27:44.790Z,21.42
2023-05-25T10:30:31.040Z,21.45
2023-05-25T10:33:17.346Z,21.45
2023-05-25T10:36:10.831Z,21.48
2023-05-25T10:38:57.785Z,21.52
2023-05-25T10:41:44.174Z,21.57
2023-05-25T10:44:32.818Z,21.63
2023-05-25T10:47:19.214Z,21.59
2023-05-25T10:50:06.090Z,21.61
2023-05-25T10:53:03.099Z,21.59
2023-05-25T10:55:54.880Z,21.63
2023-05-25T10:58:43.813Z,21.64
2023-05-25T11:01:33.825Z,21.57
2023-05-25T11:04:19.986Z,21.53
2023-05-25T11:07:13.383Z,21.54
2023-05-25T11:09:59.613Z,21.52
2023-05-25T11:12:46.661Z,21.44
2023-05-25T11:15:32.769Z,21.42
2023-05-25T11:18:18.865Z,21.36
2023-05-25T11:21:22.263Z,21.28
2023-05-25T11:24:16.201Z,21.33
2023-05-25T11:27:01.967Z,21.41
2023-05-25T11:29:51.090Z,21.53
2023-05-25T11:32:39.890Z,21.67
2023-05-25T11:35:26.718Z,21.79
2023-05-25T11:38:12.807Z,22.00
2023-05-25T11:40:58.798Z,22.19
2023-05-25T11:43:51.743Z,22.38
2023-05-25T11:46:39.017Z,22.52
2023-05-25T11:49:26.059Z,22.71
2023-05-25T11:52:13.467Z,22.83
2023-05-25T11:54:59.484Z,22.93
2023-05-25T11:57:45.384Z,23.11
2023-05-25T12:00:31.672Z,23.26
2023-05-25T12:03:34.789Z,23.38
2023-05-25T12:06:28.997Z,23.52
2023-05-25T12:09:19.879Z,23.63
2023-05-25T12:12:06.714Z,23.72
2023-05-25T12:14:52.893Z,23.82
2023-05-25T12:17:42.646Z,23.87
2023-05-25T12:20:28.991Z,24.02
2023-05-25T12:23:15.273Z,24.13
2023-05-25T12:26:13.365Z,24.26
2023-05-25T12:29:01.255Z,24.33
2023-05-25T12:31:47.496Z,24.28
2023-05-25T12:34:35.508Z,24.21
2023-05-25T12:37:22.606Z,24.08
2023-05-25T12:40:21.615Z,23.93
2023-05-25T12:43:07.894Z,23.78
2023-05-25T12:45:55.181Z,23.65
2023-05-25T12:48:41.165Z,23.51
2023-05-25T12:51:38.314Z,23.31
2023-05-25T12:54:46.560Z,23.12
2023-05-25T13:01:02.362Z,22.60
2023-05-25T13:03:49.471Z,22.36
2023-05-25T13:06:36.089Z,22.14
2023-05-25T13:09:28.689Z,22.00
2023-05-25T13:12:14.876Z,21.86
2023-05-25T13:15:01.259Z,21.78
2023-05-25T13:17:48.379Z,21.71
2023-05-25T13:20:34.378Z,21.64
2023-05-25T13:23:20.416Z,21.53
2023-05-25T13:26:06.749Z,21.39
2023-05-25T13:29:28.433Z,21.31
2023-05-25T13:32:15.013Z,21.20
2023-05-25T13:35:08.078Z,21.13
2023-05-25T13:37:54.190Z,21.10
2023-05-25T13:40:40.527Z,21.15
2023-05-25T13:43:30.990Z,21.19
2023-05-25T13:46:32.866Z,21.25
2023-05-25T13:49:28.724Z,21.29
2023-05-25T13:52:14.711Z,21.39
2023-05-25T13:55:00.985Z,21.47
2023-05-25T13:57:47.188Z,21.54
2023-05-25T14:00:33.517Z,21.59
2023-05-25T14:03:19.633Z,21.63
2023-05-25T14:06:06.010Z,21.69
2023-05-25T14:08:51.754Z,21.72
2023-05-25T14:11:37.799Z,21.74
2023-05-25T14:14:31.346Z,21.73
2023-05-25T14:17:22.902Z,21.75
2023-05-25T14:20:09.833Z,21.77
2023-05-25T14:22:56.075Z,21.77
2023-05-25T14:25:42.790Z,21.77
2023-05-25T14:28:29.066Z,21.68
2023-05-25T14:31:15.111Z,21.70
2023-05-25T14:34:01.146Z,21.66
2023-05-25T14:36:47.248Z,21.61
2023-05-25T14:39:33.136Z,21.58
2023-05-25T14:42:19.408Z,21.55
2023-05-25T14:45:07.498Z,21.54
2023-05-25T14:48:04.000Z,21.48
2023-05-25T14:51:02.714Z,21.44
2023-05-25T14:53:48.498Z,21.37
2023-05-25T14:56:34.824Z,21.31
2023-05-25T14:59:21.162Z,21.27
2023-05-25T15:02:07.556Z,21.20
2023-05-25T15:04:54.716Z,21.00
2023-05-25T15:07:41.667Z,21.10
2023-05-25T15:10:28.073Z,21.02
2023-05-25T15:13:14.292Z,20.93
2023-05-25T15:16:00.514Z,20.83
2023-05-25T15:18:46.514Z,20.80
2023-05-25T15:21:32.780Z,20.75
2023-05-25T15:24:19.092Z,20.72
2023-05-25T15:27:06.593Z,20.66
2023-05-25T15:29:52.771Z,20.69
2023-05-25T15:32:38.577Z,20.63
2023-05-25T15:35:31.141Z,20.67
2023-05-25T15:38:22.078Z,20.66
2023-05-25T15:41:08.607Z,20.62
2023-05-25T15:43:58.396Z,20.66
2023-05-25T15:46:45.193Z,20.70
2023-05-25T15:49:32.247Z,20.71
2023-05-25T15:52:18.659Z,20.73
2023-05-25T15:55:04.920Z,20.72
2023-05-25T15:57:52.009Z,20.78
2023-05-25T16:00:38.068Z,20.78
2023-05-25T16:03:24.261Z,20.80
2023-05-25T16:06:11.277Z,20.81
2023-05-25T16:08:58.893Z,20.82
2023-05-25T16:11:44.850Z,20.82
2023-05-25T16:14:30.921Z,20.81
2023-05-25T16:17:17.053Z,20.81
2023-05-25T16:20:03.241Z,20.80
2023-05-25T16:22:49.336Z,20.78
2023-05-25T16:25:35.255Z,20.74
2023-05-25T16:28:21.485Z,20.77
2023-05-25T16:31:07.902Z,20.78
2023-05-25T16:33:54.215Z,20.78
2023-05-25T16:36:40.344Z,20.75
2023-05-25T16:39:26.325Z,20.76
2023-05-25T16:42:12.470Z,20.72
2023-05-25T16:45:00.070Z,20.70
2023-05-25T16:47:45.971Z,20.67
2023-05-25T16:50:32.222Z,20.68
2023-05-25T16:53:18.301Z,20.66
2023-05-25T16:56:04.301Z,20.60
2023-05-25T16:58:51.739Z,20.59
2023-05-25T17:01:37.933Z,20.63
2023-05-25T17:04:23.664Z,20.57
2023-05-25T17:07:29.582Z,20.57
2023-05-25T17:10:15.637Z,20.54
2023-05-25T17:13:02.281Z,20.41
2023-05-25T17:15:48.618Z,20.50
2023-05-25T17:18:35.050Z,20.46
2023-05-25T17:21:21.320Z,20.47
2023-05-25T17:24:08.032Z,20.48
2023-05-25T17:26:54.193Z,20.45
2023-05-25T17:29:42.107Z,20.45
2023-05-25T17:32:28.239Z,20.41
2023-05-25T17:35:14.479Z,20.42
2023-05-25T17:38:00.687Z,20.35
2023-05-25T17:40:48.056Z,20.30
2023-05-25T17:43:34.162Z,20.23
2023-05-25T17:46:19.967Z,20.23
2023-05-25T17:49:39.504Z,20.17
2023-05-25T17:52:26.344Z,20.12
2023-05-25T17:55:12.398Z,20.02
2023-05-25T17:57:58.306Z,20.05
2023-05-25T18:00:44.239Z,20.02
2023-05-25T18:03:30.154Z,19.97
2023-05-25T18:06:16.128Z,19.97
2023-05-25T18:09:02.265Z,19.93
2023-05-25T18:11:48.212Z,19.96
2023-05-25T18:14:37.601Z,19.92
2023-05-25T18:17:23.758Z,19.96
2023-05-25T18:20:10.281Z,19.89
2023-05-25T18:22:56.446Z,19.98
2023-05-25T18:25:42.756Z,19.98
2023-05-25T18:28:30.480Z,19.96
2023-05-25T18:31:17.451Z,19.93
2023-05-25T18:34:03.924Z,19.93
2023-05-25T18:36:50.348Z,19.86
2023-05-25T18:39:36.225Z,19.86
2023-05-25T18:42:22.098Z,19.82
2023-05-25T18:45:08.265Z,19.76
2023-05-25T18:47:54.502Z,19.77
2023-05-25T18:50:42.198Z,19.71
2023-05-25T18:53:28.437Z,19.71
2023-05-25T18:56:14.493Z,19.69
2023-05-25T18:59:00.848Z,19.66
2023-05-25T19:01:46.943Z,19.66
2023-05-25T19:04:32.784Z,19.65
2023-05-25T19:07:18.883Z,19.62
2023-05-25T19:10:05.378Z,19.58
2023-05-25T19:12:51.392Z,19.62
2023-05-25T19:15:37.938Z,19.62
2023-05-25T19:18:23.802Z,19.61
2023-05-25T19:21:10.041Z,19.62
2023-05-25T19:23:57.593Z,19.61
2023-05-25T19:26:44.019Z,19.57
2023-05-25T19:29:30.015Z,19.55
2023-05-25T19:32:17.315Z,19.56
2023-05-25T19:35:03.269Z,19.53
2023-05-25T19:37:49.583Z,19.53
2023-05-25T19:40:35.737Z,19.49
2023-05-25T19:43:21.919Z,19.54
2023-05-25T19:46:08.451Z,19.52
2023-05-25T19:48:55.161Z,19.49
2023-05-25T19:51:41.374Z,19.45
2023-05-25T19:54:27.563Z,19.48
2023-05-25T19:57:13.821Z,19.51
2023-05-25T20:00:02.592Z,19.49
2023-05-25T20:02:57.596Z,19.49
2023-05-25T20:05:44.069Z,19.49
2023-05-25T20:08:31.597Z,19.47
2023-05-25T20:11:17.818Z,19.43
2023-05-25T20:14:04.464Z,19.45
2023-05-25T20:16:52.426Z,19.45
2023-05-25T20:19:38.419Z,19.41
2023-05-25T20:22:24.832Z,19.42
2023-05-25T20:25:10.919Z,19.42
2023-05-25T20:27:57.276Z,19.41
2023-05-25T20:30:44.531Z,19.40
2023-05-25T20:33:30.729Z,19.37
2023-05-25T20:36:17.305Z,19.33
2023-05-25T20:39:03.769Z,19.34
2023-05-25T20:41:50.026Z,19.26
2023-05-25T20:44:36.435Z,19.28
2023-05-25T20:47:22.855Z,19.23
2023-05-25T20:50:09.625Z,19.25
2023-05-25T20:52:56.437Z,19.20
2023-05-25T20:55:43.023Z,19.20
2023-05-25T20:58:28.923Z,19.14
2023-05-25T21:01:16.056Z,19.09
2023-05-25T21:04:02.542Z,19.01
2023-05-25T21:06:49.897Z,19.00
2023-05-25T21:09:36.220Z,18.97
2023-05-25T21:12:22.623Z,18.96
2023-05-25T21:15:08.703Z,18.98
2023-05-25T21:17:55.034Z,18.88
2023-05-25T21:20:41.385Z,18.90
2023-05-25T21:23:28.864Z,18.92
2023-05-25T21:26:14.949Z,18.90
2023-05-25T21:29:01.278Z,18.87
2023-05-25T21:31:47.712Z,18.86
2023-05-25T21:34:33.692Z,18.87
2023-05-25T21:37:19.859Z,18.82
2023-05-25T21:40:07.003Z,18.80
2023-05-25T21:42:56.023Z,18.79
2023-05-25T21:45:42.068Z,18.78
2023-05-25T21:48:27.960Z,18.77
2023-05-25T21:51:13.846Z,18.72
2023-05-25T21:54:00.051Z,18.70
2023-05-25T21:56:46.396Z,18.68
2023-05-25T21:59:32.320Z,18.64
2023-05-25T22:02:18.113Z,18.65
2023-05-25T22:05:04.288Z,18.61
2023-05-25T22:07:50.165Z,18.63
2023-05-25T22:10:36.756Z,18.54
2023-05-25T22:13:22.463Z,18.58
2023-05-25T22:16:08.241Z,18.57
2023-05-25T22:18:54.045Z,18.56
2023-05-25T22:21:40.008Z,18.56
2023-05-25T22:24:25.672Z,18.60
2023-05-25T22:27:11.494Z,18.60
2023-05-25T22:29:57.650Z,18.61
2023-05-25T22:32:43.515Z,18.60
2023-05-25T22:35:29.740Z,18.56
2023-05-25T22:38:15.714Z,18.56
2023-05-25T22:41:01.586Z,18.50
2023-05-25T22:43:47.369Z,18.52
2023-05-25T22:46:33.111Z,18.50
2023-05-25T22:49:18.815Z,18.41
2023-05-25T22:52:04.803Z,18.41
2023-05-25T22:54:50.742Z,18.39
2023-05-25T22:57:36.574Z,18.38
2023-05-25T23:00:22.490Z,18.35
2023-05-25T23:03:08.441Z,18.34
2023-05-25T23:05:54.671Z,18.30
2023-05-25T23:08:40.449Z,18.26
2023-05-25T23:11:27.278Z,18.24
2023-05-25T23:14:13.157Z,18.28
2023-05-25T23:16:59.274Z,18.27
2023-05-25T23:19:45.507Z,18.25
2023-05-25T23:22:31.612Z,18.22
2023-05-25T23:25:17.374Z,18.24
2023-05-25T23:28:03.369Z,18.24
2023-05-25T23:30:49.278Z,18.24
2023-05-25T23:33:35.610Z,18.16
2023-05-25T23:36:21.947Z,18.19
2023-05-25T23:39:08.215Z,18.15
2023-05-25T23:41:54.120Z,18.17
2023-05-25T23:44:39.979Z,18.12
2023-05-25T23:47:26.234Z,18.14
2023-05-25T23:50:12.202Z,18.14
2023-05-25T23:52:57.894Z,18.13
2023-05-25T23:55:44.004Z,18.08
2023-05-25T23:58:30.243Z,18.06
